sensor_id;sensor_type;location;lat;lon;timestamp;temperature;humidity
24744;DHT22;12844;52.110;5.548;2023-03-08T00:20:14;18.60;50.10
24744;DHT22;12844;52.110;5.548;2023-03-08T00:22:41;18.60;50.00
24744;DHT22;12844;52.110;5.548;2023-03-08T00:25:08;18.60;50.00
24744;DHT22;12844;52.110;5.548;2023-03-08T00:27:35;18.60;49.20
24744;DHT22;12844;52.110;5.548;2023-03-08T00:30:01;18.60;49.00
24744;DHT22;12844;52.110;5.548;2023-03-08T00:32:28;18.60;48.60
24744;DHT22;12844;52.110;5.548;2023-03-08T00:34:54;18.50;48.40
24744;DHT22;12844;52.110;5.548;2023-03-08T00:45:06;18.50;48.10
24744;DHT22;12844;52.110;5.548;2023-03-08T00:47:32;18.50;48.10
24744;DHT22;12844;52.110;5.548;2023-03-08T00:49:59;18.40;48.00
24744;DHT22;12844;52.110;5.548;2023-03-08T00:52:25;18.40;48.00
24744;DHT22;12844;52.110;5.548;2023-03-08T00:54:50;18.40;48.20
24744;DHT22;12844;52.110;5.548;2023-03-08T00:57:16;18.30;48.10
24744;DHT22;12844;52.110;5.548;2023-03-08T00:59:41;18.30;48.10
24744;DHT22;12844;52.110;5.548;2023-03-08T01:02:07;18.30;48.20
24744;DHT22;12844;52.110;5.548;2023-03-08T01:04:33;18.30;48.20
24744;DHT22;12844;52.110;5.548;2023-03-08T01:06:59;18.20;48.00
24744;DHT22;12844;52.110;5.548;2023-03-08T01:09:25;18.20;48.10
24744;DHT22;12844;52.110;5.548;2023-03-08T01:11:50;18.20;48.10
24744;DHT22;12844;52.110;5.548;2023-03-08T01:14:16;18.20;48.00
24744;DHT22;12844;52.110;5.548;2023-03-08T01:16:41;18.20;48.00
24744;DHT22;12844;52.110;5.548;2023-03-08T01:19:08;18.20;48.10
24744;DHT22;12844;52.110;5.548;2023-03-08T01:21:33;18.20;48.10
24744;DHT22;12844;52.110;5.548;2023-03-08T01:23:59;18.10;48.10
24744;DHT22;12844;52.110;5.548;2023-03-08T01:26:26;18.10;48.00
24744;DHT22;12844;52.110;5.548;2023-03-08T01:28:52;18.10;48.10
24744;DHT22;12844;52.110;5.548;2023-03-08T01:31:26;18.10;48.00
24744;DHT22;12844;52.110;5.548;2023-03-08T01:33:52;18.10;48.10
24744;DHT22;12844;52.110;5.548;2023-03-08T01:36:20;18.10;48.10
24744;DHT22;12844;52.110;5.548;2023-03-08T01:38:47;18.10;48.10
24744;DHT22;12844;52.110;5.548;2023-03-08T01:41:19;18.10;48.20
24744;DHT22;12844;52.110;5.548;2023-03-08T01:43:45;18.00;48.20
24744;DHT22;12844;52.110;5.548;2023-03-08T01:49:07;18.00;48.20
24744;DHT22;12844;52.110;5.548;2023-03-08T01:51:51;18.00;48.30
24744;DHT22;12844;52.110;5.548;2023-03-08T01:54:20;18.00;48.20
24744;DHT22;12844;52.110;5.548;2023-03-08T01:56:49;17.90;48.30
24744;DHT22;12844;52.110;5.548;2023-03-08T01:59:15;17.90;48.30
24744;DHT22;12844;52.110;5.548;2023-03-08T02:01:41;17.90;48.20
24744;DHT22;12844;52.110;5.548;2023-03-08T02:04:08;17.90;48.30
24744;DHT22;12844;52.110;5.548;2023-03-08T02:06:34;17.90;48.30
24744;DHT22;12844;52.110;5.548;2023-03-08T02:09:00;17.90;48.20
24744;DHT22;12844;52.110;5.548;2023-03-08T02:11:29;17.90;48.20
24744;DHT22;12844;52.110;5.548;2023-03-08T02:13:55;17.80;48.20
24744;DHT22;12844;52.110;5.548;2023-03-08T02:16:21;17.80;48.20
24744;DHT22;12844;52.110;5.548;2023-03-08T02:18:55;17.80;48.10
24744;DHT22;12844;52.110;5.548;2023-03-08T02:21:22;17.80;48.20
24744;DHT22;12844;52.110;5.548;2023-03-08T02:23:47;17.80;48.20
24744;DHT22;12844;52.110;5.548;2023-03-08T02:26:13;17.80;48.20
24744;DHT22;12844;52.110;5.548;2023-03-08T02:28:39;17.80;48.20
24744;DHT22;12844;52.110;5.548;2023-03-08T02:31:06;17.80;48.20
24744;DHT22;12844;52.110;5.548;2023-03-08T02:33:31;17.80;48.20
24744;DHT22;12844;52.110;5.548;2023-03-08T02:36:01;17.70;48.20
24744;DHT22;12844;52.110;5.548;2023-03-08T02:38:26;17.70;48.20
24744;DHT22;12844;52.110;5.548;2023-03-08T02:40:52;17.70;48.20
24744;DHT22;12844;52.110;5.548;2023-03-08T02:43:18;17.70;48.20
24744;DHT22;12844;52.110;5.548;2023-03-08T02:45:43;17.70;48.20
24744;DHT22;12844;52.110;5.548;2023-03-08T02:48:09;17.70;48.20
24744;DHT22;12844;52.110;5.548;2023-03-08T02:50:35;17.70;48.20
24744;DHT22;12844;52.110;5.548;2023-03-08T02:53:04;17.70;48.20
24744;DHT22;12844;52.110;5.548;2023-03-08T02:55:29;17.70;48.10
24744;DHT22;12844;52.110;5.548;2023-03-08T02:57:55;17.70;48.10
24744;DHT22;12844;52.110;5.548;2023-03-08T03:00:21;17.70;48.10
24744;DHT22;12844;52.110;5.548;2023-03-08T03:02:46;17.70;48.00
24744;DHT22;12844;52.110;5.548;2023-03-08T03:05:12;17.70;48.00
24744;DHT22;12844;52.110;5.548;2023-03-08T03:07:40;17.60;48.10
24744;DHT22;12844;52.110;5.548;2023-03-08T03:10:08;17.60;48.00
24744;DHT22;12844;52.110;5.548;2023-03-08T03:12:34;17.60;48.10
24744;DHT22;12844;52.110;5.548;2023-03-08T03:15:01;17.60;48.10
24744;DHT22;12844;52.110;5.548;2023-03-08T03:17:27;17.60;48.20
24744;DHT22;12844;52.110;5.548;2023-03-08T03:19:52;17.60;48.10
24744;DHT22;12844;52.110;5.548;2023-03-08T03:22:18;17.60;48.00
24744;DHT22;12844;52.110;5.548;2023-03-08T03:24:43;17.60;47.90
24744;DHT22;12844;52.110;5.548;2023-03-08T03:27:09;17.60;48.00
24744;DHT22;12844;52.110;5.548;2023-03-08T03:29:36;17.60;48.00
24744;DHT22;12844;52.110;5.548;2023-03-08T03:32:02;17.50;48.00
24744;DHT22;12844;52.110;5.548;2023-03-08T03:34:27;17.50;48.00
24744;DHT22;12844;52.110;5.548;2023-03-08T03:36:54;17.50;48.00
24744;DHT22;12844;52.110;5.548;2023-03-08T03:39:19;17.50;48.10
24744;DHT22;12844;52.110;5.548;2023-03-08T03:41:45;17.50;48.00
24744;DHT22;12844;52.110;5.548;2023-03-08T03:44:11;17.50;48.00
24744;DHT22;12844;52.110;5.548;2023-03-08T03:46:36;17.50;48.00
24744;DHT22;12844;52.110;5.548;2023-03-08T03:49:02;17.50;48.10
24744;DHT22;12844;52.110;5.548;2023-03-08T03:51:28;17.40;48.10
24744;DHT22;12844;52.110;5.548;2023-03-08T03:53:53;17.40;48.00
24744;DHT22;12844;52.110;5.548;2023-03-08T03:56:21;17.40;48.00
24744;DHT22;12844;52.110;5.548;2023-03-08T03:58:48;17.40;48.00
24744;DHT22;12844;52.110;5.548;2023-03-08T04:01:23;17.40;48.10
24744;DHT22;12844;52.110;5.548;2023-03-08T04:03:50;17.40;48.00
24744;DHT22;12844;52.110;5.548;2023-03-08T04:06:18;17.40;48.10
24744;DHT22;12844;52.110;5.548;2023-03-08T04:08:45;17.40;48.10
24744;DHT22;12844;52.110;5.548;2023-03-08T04:11:13;17.40;48.10
24744;DHT22;12844;52.110;5.548;2023-03-08T04:13:39;17.40;48.10
24744;DHT22;12844;52.110;5.548;2023-03-08T04:18:35;17.40;48.10
24744;DHT22;12844;52.110;5.548;2023-03-08T04:21:00;17.30;48.00
24744;DHT22;12844;52.110;5.548;2023-03-08T04:23:26;17.30;48.00
24744;DHT22;12844;52.110;5.548;2023-03-08T04:25:51;17.30;48.00
24744;DHT22;12844;52.110;5.548;2023-03-08T04:28:17;17.30;48.00
24744;DHT22;12844;52.110;5.548;2023-03-08T04:30:42;17.30;48.10
24744;DHT22;12844;52.110;5.548;2023-03-08T04:33:08;17.30;48.10
24744;DHT22;12844;52.110;5.548;2023-03-08T04:35:33;17.30;48.10
24744;DHT22;12844;52.110;5.548;2023-03-08T04:37:59;17.30;48.10
24744;DHT22;12844;52.110;5.548;2023-03-08T04:40:24;17.30;48.20
24744;DHT22;12844;52.110;5.548;2023-03-08T04:42:50;17.30;48.20
24744;DHT22;12844;52.110;5.548;2023-03-08T04:45:15;17.30;48.10
24744;DHT22;12844;52.110;5.548;2023-03-08T04:47:41;17.20;48.10
24744;DHT22;12844;52.110;5.548;2023-03-08T04:50:07;17.20;48.10
24744;DHT22;12844;52.110;5.548;2023-03-08T04:52:33;17.20;48.20
24744;DHT22;12844;52.110;5.548;2023-03-08T04:54:58;17.20;48.10
24744;DHT22;12844;52.110;5.548;2023-03-08T04:57:24;17.20;48.10
24744;DHT22;12844;52.110;5.548;2023-03-08T04:59:49;17.20;48.10
24744;DHT22;12844;52.110;5.548;2023-03-08T05:02:15;17.20;48.10
24744;DHT22;12844;52.110;5.548;2023-03-08T05:04:41;17.20;48.10
24744;DHT22;12844;52.110;5.548;2023-03-08T05:07:06;17.20;48.10
24744;DHT22;12844;52.110;5.548;2023-03-08T05:09:32;17.20;48.10
24744;DHT22;12844;52.110;5.548;2023-03-08T05:11:57;17.20;48.10
24744;DHT22;12844;52.110;5.548;2023-03-08T05:14:23;17.10;48.10
24744;DHT22;12844;52.110;5.548;2023-03-08T05:16:49;17.10;48.10
24744;DHT22;12844;52.110;5.548;2023-03-08T05:19:15;17.10;48.10
24744;DHT22;12844;52.110;5.548;2023-03-08T05:21:40;17.20;48.20
24744;DHT22;12844;52.110;5.548;2023-03-08T05:24:06;17.20;48.30
24744;DHT22;12844;52.110;5.548;2023-03-08T05:26:31;17.20;48.30
24744;DHT22;12844;52.110;5.548;2023-03-08T05:29:00;17.20;48.40
24744;DHT22;12844;52.110;5.548;2023-03-08T05:31:26;17.20;48.40
24744;DHT22;12844;52.110;5.548;2023-03-08T05:33:51;17.10;48.30
24744;DHT22;12844;52.110;5.548;2023-03-08T05:36:18;17.10;48.30
24744;DHT22;12844;52.110;5.548;2023-03-08T05:38:44;17.10;48.20
24744;DHT22;12844;52.110;5.548;2023-03-08T05:41:14;17.10;48.10
24744;DHT22;12844;52.110;5.548;2023-03-08T05:43:40;17.10;48.00
24744;DHT22;12844;52.110;5.548;2023-03-08T05:46:10;17.00;48.00
24744;DHT22;12844;52.110;5.548;2023-03-08T05:48:36;17.00;48.00
24744;DHT22;12844;52.110;5.548;2023-03-08T05:51:13;17.00;47.90
24744;DHT22;12844;52.110;5.548;2023-03-08T05:53:39;17.00;47.90
24744;DHT22;12844;52.110;5.548;2023-03-08T05:56:19;17.00;47.90
24744;DHT22;12844;52.110;5.548;2023-03-08T05:58:45;17.00;47.90
24744;DHT22;12844;52.110;5.548;2023-03-08T06:01:13;17.00;47.90
24744;DHT22;12844;52.110;5.548;2023-03-08T06:03:41;17.00;47.80
24744;DHT22;12844;52.110;5.548;2023-03-08T06:06:07;17.00;47.80
24744;DHT22;12844;52.110;5.548;2023-03-08T06:08:33;17.00;47.90
24744;DHT22;12844;52.110;5.548;2023-03-08T06:10:58;17.00;47.90
24744;DHT22;12844;52.110;5.548;2023-03-08T06:13:24;16.90;47.80
24744;DHT22;12844;52.110;5.548;2023-03-08T06:15:56;16.90;47.80
24744;DHT22;12844;52.110;5.548;2023-03-08T06:18:23;16.90;47.80
24744;DHT22;12844;52.110;5.548;2023-03-08T06:21:12;16.90;47.80
24744;DHT22;12844;52.110;5.548;2023-03-08T06:23:38;16.90;47.70
24744;DHT22;12844;52.110;5.548;2023-03-08T06:26:05;16.90;47.80
24744;DHT22;12844;52.110;5.548;2023-03-08T06:28:30;16.90;47.70
24744;DHT22;12844;52.110;5.548;2023-03-08T06:30:56;16.90;47.80
24744;DHT22;12844;52.110;5.548;2023-03-08T06:33:24;16.90;47.70
24744;DHT22;12844;52.110;5.548;2023-03-08T06:36:04;16.90;47.70
24744;DHT22;12844;52.110;5.548;2023-03-08T06:38:32;16.90;47.70
24744;DHT22;12844;52.110;5.548;2023-03-08T06:40:59;16.90;47.70
24744;DHT22;12844;52.110;5.548;2023-03-08T06:43:25;16.90;47.70
24744;DHT22;12844;52.110;5.548;2023-03-08T06:45:50;16.90;47.70
24744;DHT22;12844;52.110;5.548;2023-03-08T07:50:25;16.80;47.60
24744;DHT22;12844;52.110;5.548;2023-03-08T07:52:51;16.80;47.80
24744;DHT22;12844;52.110;5.548;2023-03-08T07:55:16;16.60;48.90
24744;DHT22;12844;52.110;5.548;2023-03-08T07:57:42;16.40;49.50
24744;DHT22;12844;52.110;5.548;2023-03-08T08:00:08;16.30;50.00
24744;DHT22;12844;52.110;5.548;2023-03-08T08:02:37;16.30;50.50
24744;DHT22;12844;52.110;5.548;2023-03-08T08:05:03;16.40;50.90
24744;DHT22;12844;52.110;5.548;2023-03-08T08:33:22;18.10;50.10
24744;DHT22;12844;52.110;5.548;2023-03-08T08:35:48;18.20;49.90
24744;DHT22;12844;52.110;5.548;2023-03-08T08:38:13;18.30;49.40
24744;DHT22;12844;52.110;5.548;2023-03-08T08:40:39;18.40;49.30
24744;DHT22;12844;52.110;5.548;2023-03-08T08:43:04;18.40;49.40
24744;DHT22;12844;52.110;5.548;2023-03-08T08:45:30;18.40;49.20
24744;DHT22;12844;52.110;5.548;2023-03-08T17:39:06;19.10;49.40
24744;DHT22;12844;52.110;5.548;2023-03-08T17:41:32;19.10;49.40
24744;DHT22;12844;52.110;5.548;2023-03-08T17:43:58;18.80;49.70
24744;DHT22;12844;52.110;5.548;2023-03-08T17:46:25;18.60;50.30
24744;DHT22;12844;52.110;5.548;2023-03-08T17:48:52;18.50;50.80
24744;DHT22;12844;52.110;5.548;2023-03-08T17:51:20;18.50;51.00
24744;DHT22;12844;52.110;5.548;2023-03-08T17:53:46;18.40;51.60
24744;DHT22;12844;52.110;5.548;2023-03-08T17:56:18;18.40;51.00
24744;DHT22;12844;52.110;5.548;2023-03-08T21:12:56;18.50;51.60
24744;DHT22;12844;52.110;5.548;2023-03-08T21:15:22;18.50;51.70
24744;DHT22;12844;52.110;5.548;2023-03-08T21:17:47;18.50;51.40
24744;DHT22;12844;52.110;5.548;2023-03-08T21:20:13;18.50;51.20
24744;DHT22;12844;52.110;5.548;2023-03-08T21:22:38;18.40;51.20
24744;DHT22;12844;52.110;5.548;2023-03-08T21:25:04;18.40;51.10
24744;DHT22;12844;52.110;5.548;2023-03-08T23:11:04;17.80;49.70
24744;DHT22;12844;52.110;5.548;2023-03-08T23:13:31;17.80;49.70
24744;DHT22;12844;52.110;5.548;2023-03-08T23:15:57;17.80;49.70
24744;DHT22;12844;52.110;5.548;2023-03-08T23:18:23;17.80;49.70
24744;DHT22;12844;52.110;5.548;2023-03-08T23:20:48;17.70;49.70
24744;DHT22;12844;52.110;5.548;2023-03-08T23:23:14;17.70;49.70
24744;DHT22;12844;52.110;5.548;2023-03-08T23:25:40;17.70;49.70
24744;DHT22;12844;52.110;5.548;2023-03-08T23:35:54;17.60;49.50
24744;DHT22;12844;52.110;5.548;2023-03-08T23:38:19;17.60;49.50
24744;DHT22;12844;52.110;5.548;2023-03-08T23:40:45;17.60;49.50
24744;DHT22;12844;52.110;5.548;2023-03-08T23:43:10;17.60;49.50
24744;DHT22;12844;52.110;5.548;2023-03-08T23:45:38;17.60;49.50
24744;DHT22;12844;52.110;5.548;2023-03-08T23:48:04;17.60;49.50
24744;DHT22;12844;52.110;5.548;2023-03-08T23:50:29;17.50;49.50
24744;DHT22;12844;52.110;5.548;2023-03-08T23:52:55;17.50;49.50
24744;DHT22;12844;52.110;5.548;2023-03-08T23:55:20;17.50;49.50
24744;DHT22;12844;52.110;5.548;2023-03-08T23:57:46;17.50;49.50
